x

Dunkirk, Ny (dbln6) Weather Station

9:00am - Wed 31st Aug 2016 All times are CDT. -5 hours from GMT.

  • Wind
    6mph, 7mph gusts
  • Air Temp 67°f
  • Sea Pressure 1015.1mb
  • Dunkirk, Ny
  • Dunkirk, Ny

More Historic Weather Station data

Upgrade to MSW Pro to gain access to the past 30 days of data for over 8000 Wavebouys and Weather Stations around the globe.

Join Pro

Comparision Forecast

View Surf forecast
   
Wed 08/31 9:00am 6 7 mph 1015.1mb 67f
8:00am 7 9 mph 1015.2mb 67f
7:00am 7 9 mph 1015.2mb 71f
6:00am 5 7 mph 1014.8mb 71f
5:00am 5
mph
1015mb 71f
4:00am 6 8 mph 1015.2mb 71f
3:00am 6 7 mph 1015.6mb 72f
2:00am 7 9 mph 1015.7mb 72f
1:00am 7 8 mph 1016.1mb 71f
12:00am 8 9 mph 1016.3mb 71f
Tue 08/30 11:00pm 8 10 mph 1016.9mb 71f
10:00pm 7 9 mph 1017.2mb 71f
9:00pm 5 7 mph 1017.5mb 72f
8:00pm 6 7 mph 1017.7mb 72f
7:00pm 5 7 mph 1017.7mb 74f
6:00pm 6 8 mph 1017.8mb 76f
5:00pm 7 10 mph 1018.2mb 76f
4:00pm 8 11 mph 1018.4mb 76f
3:00pm 9 13 mph 1019mb 77f
2:00pm 11 14 mph 1019.6mb 76f
1:00pm 9 13 mph 1020.2mb 76f
12:00pm 8 11 mph 1020.8mb 75f
11:00am 9 13 mph 1021.2mb 75f
10:00am 7 10 mph 1021.6mb 76f
9:00am 5 6 mph 1021.9mb 76f
8:00am 9 11 mph 1021.9mb 70f
7:00am 9 11 mph 1022.1mb 66f
6:00am 10 13 mph 1022.2mb 64f
5:00am 9 11 mph 1022mb 65f
4:00am 9 11 mph 1022.3mb 64f
3:00am 9 10 mph 1022.3mb 65f
2:00am 8 9 mph 1022.3mb 65f
1:00am 6 7 mph 1022.5mb 68f
12:00am 6
mph
1022.5mb 69f
Mon 08/29 11:00pm 8
mph
1022.8mb 68f
10:00pm 7
mph
1023mb 70f
9:00pm 6 7 mph 1023.3mb 71f
8:00pm  -  mph 1022.9mb 74f
7:00pm 2
mph
1022.5mb 75f
6:00pm 2
mph
1022.6mb 77f
5:00pm 1 2 mph 1022.9mb 79f
4:00pm 3 5 mph 1023.2mb 77f
3:00pm 5 7 mph 1023.6mb 75f
2:00pm 5 7 mph 1024.1mb 74f
1:00pm 2 5 mph 1024.7mb 74f
12:00pm 6 8 mph 1024.9mb 71f
11:00am 6 7 mph 1025mb 73f
10:00am 7 8 mph 1024.8mb 71f
9:00am 5
mph
1024.8mb 71f
8:00am 3 6 mph 1024.4mb 72f
7:00am 8 9 mph 1024.5mb 71f
6:00am 9 11 mph 1024mb 71f
5:00am 10 11 mph 1023.4mb 71f
4:00am 13 14 mph 1023mb 72f
3:00am 16 17 mph 1022.7mb 73f
2:00am 13 15 mph 1022.5mb 74f
1:00am 13 14 mph 1022.4mb 74f
12:00am 11 13 mph 1022.8mb 75f
Sun 08/28 11:00pm 9 11 mph 1022.5mb 77f
10:00pm 7 10 mph 1022.2mb 77f
9:00pm 9 13 mph 1021.6mb 77f
8:00pm 10 15 mph 1021.3mb 77f
7:00pm 8 10 mph 1020.5mb 77f
6:00pm 9 13 mph 1020.2mb 78f
5:00pm 10 11 mph 1020.2mb 78f
4:00pm 10 14 mph 1021mb 79f
3:00pm 10 11 mph 1021.1mb 79f
2:00pm 13 15 mph 1021.3mb 78f
1:00pm 13 16 mph 1022mb 78f
12:00pm 13 14 mph 1021.7mb 78f
11:00am 13 15 mph 1021.8mb 78f
10:00am 11 15 mph 1022.2mb 78f
9:00am 13 15 mph 1021.9mb 78f
8:00am 7 9 mph 1021.8mb 78f
7:00am 7 9 mph 1021.6mb 77f
6:00am 6 10 mph 1021.3mb 75f
5:00am 7 9 mph 1020.6mb 76f
4:00am 7 10 mph 1020.1mb 76f
3:00am 7 10 mph 1019.7mb 77f
2:00am 9 13 mph 1019.2mb 78f
1:00am 9 16 mph 1019mb 78f
12:00am 5 6 mph 1019.7mb 79f
Sat 08/27 11:00pm 5 8 mph 1019.5mb 78f
10:00pm 5 6 mph 1020mb 77f
9:00pm 6 8 mph 1020.2mb 77f
8:00pm 5 6 mph 1020.5mb 78f
7:00pm 3 5 mph 1020.9mb 80f
6:00pm 6 7 mph 1020.6mb 79f
5:00pm 6 7 mph 1021mb 79f
4:00pm 9 10 mph 1020.3mb 79f